Progress, Oregon
Current Conditions -  °F | °C
As of 5:53 AM on Tuesday 21 Oct 2014 (Local Time) from KHIO Reporting Station
Broken Clouds Broken Clouds  
Wind Chill: 53°   Ceiling: 11000
Heat Index: 53°   Visibility: 10mi
Dew Point: 51°   Wind: 7mph
Humidity: 93%   Direction: 170°S
Pressure: 29.92"   Gusts: NA
Location:  45.4908°N, 122.804°W
Report Text: KHIO 211253Z 17006KT 10SM FEW070 SCT090 BKN110 12/11 A2992 RMK AO2 RAE33 SLP132 P0000 T01170106
Loading
Personal Weather Stations






























Interactive Weather Map New forecast layout! Learn more

10-Day Weather Forecast

Advertisements
Track Severe Weather on mobile